createdAt,value
2022-09-10T00:02:12.337Z,8.70
2022-09-10T00:04:39.265Z,14.00
2022-09-10T00:07:06.153Z,8.33
2022-09-10T00:09:33.038Z,8.90
2022-09-10T00:11:59.899Z,9.27
2022-09-10T00:14:26.787Z,9.23
2022-09-10T00:16:54.829Z,11.97
2022-09-10T00:19:22.152Z,7.20
2022-09-10T00:21:50.670Z,9.80
2022-09-10T00:24:17.613Z,11.27
2022-09-10T00:26:45.667Z,8.10
2022-09-10T00:29:18.387Z,7.20
2022-09-10T00:31:45.445Z,9.07
2022-09-10T00:34:14.323Z,6.27
2022-09-10T00:36:43.902Z,6.87
2022-09-10T00:39:15.085Z,7.00
2022-09-10T00:41:44.632Z,8.80
2022-09-10T00:44:43.691Z,7.43
2022-09-10T00:47:22.367Z,7.03
2022-09-10T00:50:20.863Z,5.77
2022-09-10T00:52:49.565Z,7.60
2022-09-10T00:55:17.634Z,9.00
2022-09-10T00:57:47.661Z,6.73
2022-09-10T01:00:16.035Z,8.90
2022-09-10T01:02:43.254Z,10.30
2022-09-10T01:05:12.035Z,11.50
2022-09-10T01:07:39.897Z,13.43
2022-09-10T01:10:18.057Z,8.10
2022-09-10T01:13:03.415Z,7.33
2022-09-10T01:15:53.046Z,7.30
2022-09-10T01:19:02.351Z,7.57
2022-09-10T01:21:57.361Z,7.40
2022-09-10T01:25:00.685Z,7.47
2022-09-10T01:27:44.865Z,10.20
2022-09-10T01:30:25.056Z,9.70
2022-09-10T01:33:23.398Z,6.17
2022-09-10T01:36:01.778Z,10.80
2022-09-10T01:38:35.710Z,8.87
2022-09-10T01:41:04.572Z,7.40
2022-09-10T01:43:37.582Z,8.30
2022-09-10T01:46:21.458Z,9.57
2022-09-10T01:49:07.761Z,6.07
2022-09-10T01:51:40.394Z,9.17
2022-09-10T01:54:50.818Z,5.20
2022-09-10T01:57:52.928Z,6.67
2022-09-10T02:00:22.219Z,6.30
2022-09-10T02:03:01.691Z,6.97
2022-09-10T02:05:35.250Z,6.27
2022-09-10T02:08:13.943Z,7.80
2022-09-10T02:11:06.807Z,7.13
2022-09-10T02:13:36.830Z,8.60
2022-09-10T02:16:31.251Z,20.10
2022-09-10T02:19:00.683Z,8.70
2022-09-10T02:21:27.785Z,9.03
2022-09-10T02:24:05.966Z,7.23
2022-09-10T02:26:40.288Z,7.77
2022-09-10T02:29:08.716Z,8.10
2022-09-10T02:31:36.403Z,6.30
2022-09-10T02:34:03.580Z,7.33
2022-09-10T02:36:31.989Z,11.57
2022-09-10T02:39:00.433Z,7.20
2022-09-10T02:41:30.131Z,6.33
2022-09-10T02:43:57.551Z,6.03
2022-09-10T02:46:24.773Z,9.87
2022-09-10T02:48:55.212Z,10.53
2022-09-10T02:51:24.429Z,6.90
2022-09-10T02:53:51.823Z,12.07
2022-09-10T02:56:23.697Z,7.70
2022-09-10T02:58:51.062Z,6.70
2022-09-10T03:01:21.165Z,15.90
2022-09-10T03:03:58.162Z,8.63
2022-09-10T03:06:26.477Z,9.03
2022-09-10T03:08:57.654Z,10.10
2022-09-10T03:11:27.473Z,8.93
2022-09-10T03:13:55.785Z,7.73
2022-09-10T03:16:24.364Z,7.90
2022-09-10T03:18:52.258Z,9.67
2022-09-10T03:21:22.315Z,7.33
2022-09-10T03:23:51.245Z,7.93
2022-09-10T03:26:25.929Z,8.13
2022-09-10T03:28:54.077Z,6.63
2022-09-10T03:31:23.656Z,12.97
2022-09-10T03:33:51.449Z,10.90
2022-09-10T03:36:20.885Z,7.80
2022-09-10T03:38:49.408Z,7.50
2022-09-10T03:41:17.252Z,6.37
2022-09-10T03:43:44.970Z,8.80
2022-09-10T03:46:12.159Z,9.97
2022-09-10T03:48:43.605Z,6.80
2022-09-10T03:51:11.107Z,6.00
2022-09-10T03:53:39.239Z,14.83
2022-09-10T03:56:08.394Z,12.70
2022-09-10T03:58:35.877Z,7.23
2022-09-10T04:01:03.889Z,8.53
2022-09-10T04:03:33.367Z,10.13
2022-09-10T04:06:00.285Z,6.10
2022-09-10T04:08:27.225Z,9.07
2022-09-10T04:10:55.149Z,7.33
2022-09-10T04:13:23.048Z,7.40
2022-09-10T04:15:50.040Z,9.83
2022-09-10T04:18:17.125Z,7.70
2022-09-10T04:20:48.131Z,7.73
2022-09-10T04:23:16.430Z,11.40
2022-09-10T04:25:46.585Z,6.87
2022-09-10T04:28:13.672Z,7.03
2022-09-10T04:30:40.629Z,7.17
2022-09-10T04:33:09.469Z,6.73
2022-09-10T04:35:36.374Z,10.53
2022-09-10T04:38:07.150Z,9.00
2022-09-10T04:40:38.102Z,9.13
2022-09-10T04:43:05.031Z,12.43
2022-09-10T04:45:35.125Z,8.23
2022-09-10T04:48:06.722Z,8.07
2022-09-10T04:50:34.499Z,9.03
2022-09-10T04:53:12.256Z,17.73
2022-09-10T04:55:43.008Z,7.23
2022-09-10T04:58:10.652Z,8.63
2022-09-10T05:00:39.370Z,7.57
2022-09-10T05:03:07.187Z,15.57
2022-09-10T05:05:34.862Z,8.90
2022-09-10T05:08:08.140Z,20.47
2022-09-10T05:10:38.276Z,19.87
2022-09-10T05:13:07.264Z,8.90
2022-09-10T05:15:35.717Z,8.00
2022-09-10T05:18:04.538Z,18.73
2022-09-10T05:20:35.703Z,13.23
2022-09-10T05:23:02.616Z,12.23
2022-09-10T05:25:29.617Z,6.73
2022-09-10T05:27:58.374Z,13.47
2022-09-10T05:30:25.246Z,8.10
2022-09-10T05:32:53.271Z,14.03
2022-09-10T05:35:20.421Z,7.43
2022-09-10T05:37:48.639Z,6.80
2022-09-10T05:40:15.947Z,12.00
2022-09-10T05:42:44.234Z,13.97
2022-09-10T05:45:11.307Z,15.10
2022-09-10T05:47:38.266Z,22.63
2022-09-10T05:50:07.288Z,15.13
2022-09-10T05:52:35.127Z,13.23
2022-09-10T05:55:06.796Z,13.43
2022-09-10T05:57:33.680Z,12.37
2022-09-10T06:00:02.019Z,8.77
2022-09-10T06:02:30.546Z,9.50
2022-09-10T06:04:58.572Z,8.03
2022-09-10T06:07:28.212Z,8.97
2022-09-10T06:09:55.851Z,9.20
2022-09-10T06:12:35.410Z,11.60
2022-09-10T06:15:03.659Z,9.73
2022-09-10T06:17:30.591Z,9.03
2022-09-10T06:19:58.016Z,6.97
2022-09-10T06:22:25.075Z,11.87
2022-09-10T06:24:53.730Z,11.77
2022-09-10T06:27:23.227Z,7.33
2022-09-10T06:29:51.276Z,5.90
2022-09-10T06:32:18.259Z,8.30
2022-09-10T06:34:46.543Z,8.00
2022-09-10T06:37:13.440Z,9.17
2022-09-10T06:39:40.970Z,8.77
2022-09-10T06:42:08.131Z,13.73
2022-09-10T06:44:54.800Z,14.60
2022-09-10T06:48:25.456Z,9.83
2022-09-10T06:50:21.443Z,9.10
2022-09-10T06:52:50.220Z,14.90
2022-09-10T06:55:20.652Z,10.40
2022-09-10T06:57:47.617Z,18.50
2022-09-10T07:00:17.451Z,12.10
2022-09-10T07:02:50.452Z,8.70
2022-09-10T07:05:17.754Z,11.80
2022-09-10T07:07:46.356Z,9.10
2022-09-10T07:10:14.406Z,7.27
2022-09-10T07:12:41.913Z,9.13
2022-09-10T07:15:09.638Z,9.60
2022-09-10T07:17:37.015Z,9.53
2022-09-10T07:20:04.631Z,10.93
2022-09-10T07:22:43.712Z,9.93
2022-09-10T07:25:12.817Z,9.90
2022-09-10T07:27:57.957Z,13.10
2022-09-10T07:30:25.640Z,15.70
2022-09-10T07:32:52.804Z,11.67
2022-09-10T07:35:25.467Z,13.17
2022-09-10T07:37:54.264Z,13.00
2022-09-10T07:40:23.403Z,12.10
2022-09-10T07:42:52.450Z,10.87
2022-09-10T07:45:19.760Z,13.60
2022-09-10T07:47:48.618Z,14.00
2022-09-10T07:50:16.483Z,9.73
2022-09-10T07:52:44.475Z,10.17
2022-09-10T07:55:11.517Z,9.00
2022-09-10T07:57:40.535Z,10.47
2022-09-10T08:00:16.705Z,8.80
2022-09-10T08:02:46.976Z,8.80
2022-09-10T08:05:18.552Z,8.70
2022-09-10T08:07:46.608Z,12.17
2022-09-10T08:10:13.553Z,14.83
2022-09-10T08:12:41.975Z,6.93
2022-09-10T08:15:10.809Z,12.97
2022-09-10T08:17:40.051Z,13.23
2022-09-10T08:20:09.850Z,7.20
2022-09-10T08:22:38.633Z,8.80
2022-09-10T08:25:06.343Z,8.63
2022-09-10T08:27:35.134Z,10.20
2022-09-10T08:30:05.668Z,12.93
2022-09-10T08:32:35.834Z,13.30
2022-09-10T08:35:04.945Z,10.67
2022-09-10T08:37:33.378Z,11.30
2022-09-10T08:40:00.364Z,11.40
2022-09-10T08:42:39.946Z,10.47
2022-09-10T08:45:17.424Z,9.00
2022-09-10T08:47:57.150Z,9.80
2022-09-10T08:50:49.707Z,10.93
2022-09-10T08:53:44.232Z,10.73
2022-09-10T08:56:21.494Z,10.87
2022-09-10T08:59:00.023Z,9.43
2022-09-10T09:01:45.768Z,7.37
2022-09-10T09:04:39.651Z,10.40
2022-09-10T09:07:15.812Z,14.07
2022-09-10T09:09:51.469Z,8.27
2022-09-10T09:12:36.177Z,8.13
2022-09-10T09:15:25.560Z,9.40
2022-09-10T09:18:15.460Z,10.57
2022-09-10T09:20:52.560Z,10.27
2022-09-10T09:23:23.619Z,9.37
2022-09-10T09:26:04.689Z,9.47
2022-09-10T09:28:49.409Z,12.87
2022-09-10T09:31:26.280Z,11.13
2022-09-10T09:34:05.891Z,9.13
2022-09-10T09:36:42.433Z,10.93
2022-09-10T09:39:42.642Z,10.53
2022-09-10T09:42:24.779Z,13.40
2022-09-10T09:45:32.425Z,13.60
2022-09-10T09:47:59.785Z,9.93
2022-09-10T09:50:30.032Z,7.73
2022-09-10T09:52:57.278Z,12.43
2022-09-10T09:55:38.872Z,7.40
2022-09-10T09:58:26.833Z,7.63
2022-09-10T10:01:09.740Z,9.00
2022-09-10T10:03:58.558Z,7.20
2022-09-10T10:06:34.671Z,8.07
2022-09-10T10:09:22.927Z,8.77
2022-09-10T10:11:58.293Z,7.00
2022-09-10T10:14:41.530Z,8.80
2022-09-10T10:17:30.220Z,8.20
2022-09-10T10:20:14.400Z,8.27
2022-09-10T10:22:44.069Z,8.33
2022-09-10T10:25:38.364Z,7.40
2022-09-10T10:28:31.871Z,7.03
2022-09-10T10:31:01.084Z,8.90
2022-09-10T10:33:31.515Z,7.43
2022-09-10T10:36:19.631Z,11.73
2022-09-10T10:39:47.605Z,8.27
2022-09-10T10:42:45.767Z,7.80
2022-09-10T10:45:45.963Z,10.43
2022-09-10T10:48:33.903Z,6.37
2022-09-10T10:51:15.040Z,12.30
2022-09-10T10:54:29.509Z,9.90
2022-09-10T10:57:30.495Z,7.50
2022-09-10T11:00:12.878Z,6.40
2022-09-10T11:03:15.924Z,8.50
2022-09-10T11:05:48.302Z,12.50
2022-09-10T11:08:29.996Z,6.40
2022-09-10T11:11:13.789Z,7.37
2022-09-10T11:14:25.208Z,6.53
2022-09-10T11:17:05.628Z,7.63
2022-09-10T11:19:43.093Z,8.97
2022-09-10T11:22:22.872Z,10.03
2022-09-10T11:25:00.504Z,9.07
2022-09-10T11:27:37.648Z,19.33
2022-09-10T11:30:10.563Z,15.67
2022-09-10T11:33:05.567Z,8.10
2022-09-10T11:35:44.607Z,11.37
2022-09-10T11:38:36.812Z,7.60
2022-09-10T11:41:22.306Z,9.47
2022-09-10T11:44:15.472Z,9.90
2022-09-10T11:46:58.204Z,10.37
2022-09-10T11:49:39.336Z,11.77
2022-09-10T11:52:06.217Z,9.90
2022-09-10T11:54:35.736Z,5.67
2022-09-10T11:57:40.244Z,10.50
2022-09-10T12:00:18.394Z,8.80
2022-09-10T12:03:30.736Z,10.97
2022-09-10T12:06:22.269Z,7.27
2022-09-10T12:09:09.340Z,9.20
2022-09-10T12:12:09.076Z,6.80
2022-09-10T12:14:39.942Z,9.83
2022-09-10T12:17:29.946Z,7.23
2022-09-10T12:19:59.001Z,5.00
2022-09-10T12:22:31.769Z,8.20
2022-09-10T12:25:28.338Z,4.97
2022-09-10T12:28:01.526Z,8.63
2022-09-10T12:30:29.126Z,10.00
2022-09-10T12:33:01.870Z,13.53
2022-09-10T12:35:45.976Z,11.07
2022-09-10T12:39:09.179Z,6.90
2022-09-10T12:41:36.108Z,9.13
2022-09-10T12:44:34.407Z,10.13
2022-09-10T12:47:16.469Z,8.53
2022-09-10T12:49:49.506Z,8.30
2022-09-10T12:52:40.732Z,10.70
2022-09-10T12:55:48.910Z,8.90
2022-09-10T12:58:58.961Z,6.37
2022-09-10T13:01:46.376Z,6.57
2022-09-10T13:04:37.201Z,5.73
2022-09-10T13:07:25.118Z,8.37
2022-09-10T13:10:14.943Z,4.67
2022-09-10T13:12:45.052Z,7.70
2022-09-10T13:15:24.053Z,6.80
2022-09-10T13:17:51.406Z,8.87
2022-09-10T13:20:21.207Z,7.10
2022-09-10T13:23:10.108Z,10.13
2022-09-10T13:25:45.881Z,8.37
2022-09-10T13:28:31.335Z,6.83
2022-09-10T13:31:09.103Z,5.10
2022-09-10T13:34:14.100Z,6.67
2022-09-10T13:37:17.415Z,9.47
2022-09-10T13:40:08.851Z,7.73
2022-09-10T13:43:07.645Z,6.67
2022-09-10T13:45:42.052Z,6.70
2022-09-10T13:48:27.514Z,6.30
2022-09-10T13:51:11.162Z,4.20
2022-09-10T13:53:43.818Z,6.90
2022-09-10T13:56:21.564Z,5.60
2022-09-10T13:58:51.597Z,5.50
2022-09-10T14:01:18.610Z,7.40
2022-09-10T14:03:45.559Z,7.30
2022-09-10T14:06:18.296Z,6.40
2022-09-10T14:09:04.762Z,8.40
2022-09-10T14:11:41.304Z,6.37
2022-09-10T14:14:19.234Z,5.10
2022-09-10T14:16:52.623Z,6.13
2022-09-10T14:19:26.384Z,4.90
2022-09-10T14:21:55.719Z,7.97
2022-09-10T14:24:59.764Z,7.90
2022-09-10T14:27:30.989Z,8.23
2022-09-10T14:30:25.924Z,6.90
2022-09-10T14:32:53.219Z,7.00
2022-09-10T14:35:37.113Z,5.77
2022-09-10T14:38:26.470Z,6.30
2022-09-10T14:41:08.465Z,8.87
2022-09-10T14:43:38.976Z,5.40
2022-09-10T14:46:08.259Z,5.73
2022-09-10T14:48:39.452Z,7.00
2022-09-10T14:51:21.946Z,11.43
2022-09-10T14:53:56.984Z,8.53
2022-09-10T14:56:37.983Z,9.30
2022-09-10T14:59:36.339Z,7.97
2022-09-10T15:02:15.530Z,6.57
2022-09-10T15:04:42.453Z,11.30
2022-09-10T15:07:10.140Z,6.70
2022-09-10T15:09:37.012Z,5.50
2022-09-10T15:12:24.336Z,7.80
2022-09-10T15:14:52.088Z,6.23
2022-09-10T15:17:19.688Z,13.80
2022-09-10T15:19:47.242Z,11.33
2022-09-10T15:22:23.669Z,5.83
2022-09-10T15:25:08.987Z,14.07
2022-09-10T15:27:36.335Z,9.60
2022-09-10T15:30:03.479Z,8.63
2022-09-10T15:32:30.765Z,5.80
2022-09-10T15:34:57.646Z,9.10
2022-09-10T15:37:24.578Z,5.40
2022-09-10T15:39:51.669Z,6.73
2022-09-10T15:42:18.659Z,9.43
2022-09-10T15:44:45.532Z,6.67
2022-09-10T15:47:12.415Z,6.83
2022-09-10T15:49:39.319Z,6.67
2022-09-10T15:52:06.224Z,5.97
2022-09-10T15:54:33.895Z,6.87
2022-09-10T15:57:01.204Z,6.77
2022-09-10T15:59:28.526Z,6.60
2022-09-10T16:01:55.459Z,9.67
2022-09-10T16:04:22.947Z,9.20
2022-09-10T16:06:49.871Z,8.90
2022-09-10T16:09:16.943Z,7.00
2022-09-10T16:11:44.457Z,13.33
2022-09-10T16:14:14.679Z,12.97
2022-09-10T16:16:41.883Z,9.27
2022-09-10T16:19:12.059Z,9.50
2022-09-10T16:21:39.296Z,13.13
2022-09-10T16:24:06.962Z,12.03
2022-09-10T16:26:41.605Z,12.57
2022-09-10T16:29:15.907Z,10.00
2022-09-10T16:31:45.489Z,8.63
2022-09-10T16:34:19.047Z,8.67
2022-09-10T16:36:51.508Z,8.47
2022-09-10T16:39:19.867Z,9.33
2022-09-10T16:41:49.088Z,7.30
2022-09-10T16:44:17.779Z,6.23
2022-09-10T16:46:46.552Z,11.83
2022-09-10T16:49:15.064Z,8.87
2022-09-10T16:51:44.196Z,9.87
2022-09-10T16:54:13.538Z,9.63
2022-09-10T16:56:43.933Z,7.50
2022-09-10T16:59:15.734Z,10.23
2022-09-10T17:01:48.407Z,6.97
2022-09-10T17:04:20.646Z,10.27
2022-09-10T17:06:50.780Z,11.03
2022-09-10T17:09:17.963Z,9.00
2022-09-10T17:11:44.852Z,5.73
2022-09-10T17:14:12.368Z,6.63
2022-09-10T17:16:41.564Z,7.77
2022-09-10T17:19:23.231Z,6.03
2022-09-10T17:21:53.437Z,10.83
2022-09-10T17:24:23.401Z,14.83
2022-09-10T17:26:51.055Z,14.53
2022-09-10T17:29:22.237Z,8.90
2022-09-10T17:31:52.029Z,7.40
2022-09-10T17:34:21.341Z,9.27
2022-09-10T17:36:49.081Z,8.13
2022-09-10T17:39:16.890Z,6.70
2022-09-10T17:41:44.065Z,6.90
2022-09-10T17:44:12.148Z,7.33
2022-09-10T17:46:39.443Z,7.07
2022-09-10T17:49:06.688Z,7.10
2022-09-10T17:51:34.962Z,15.90
2022-09-10T17:54:03.270Z,10.77
2022-09-10T17:56:31.300Z,10.13
2022-09-10T17:59:01.675Z,14.97
2022-09-10T18:01:38.828Z,17.33
2022-09-10T18:04:12.660Z,15.03
2022-09-10T18:06:40.747Z,18.43
2022-09-10T18:09:08.660Z,11.27
2022-09-10T18:11:39.528Z,12.20
2022-09-10T18:14:07.209Z,13.60
2022-09-10T18:16:36.285Z,12.13
2022-09-10T18:19:13.728Z,16.27
2022-09-10T18:21:42.049Z,9.07
2022-09-10T18:24:19.022Z,10.33
2022-09-10T18:26:48.288Z,8.80
2022-09-10T18:29:27.740Z,7.43
2022-09-10T18:31:57.935Z,7.07
2022-09-10T18:34:28.603Z,7.90
2022-09-10T18:36:58.570Z,9.47
2022-09-10T18:39:27.629Z,6.27
2022-09-10T18:41:55.086Z,7.23
2022-09-10T18:44:27.205Z,9.00
2022-09-10T18:46:54.466Z,7.83
2022-09-10T18:49:24.379Z,5.90
2022-09-10T18:51:52.408Z,6.13
2022-09-10T18:54:21.760Z,9.03
2022-09-10T18:56:49.585Z,10.70
2022-09-10T18:59:20.221Z,11.00
2022-09-10T19:01:49.337Z,6.60
2022-09-10T19:04:20.128Z,8.37
2022-09-10T19:06:48.529Z,5.13
2022-09-10T19:09:19.546Z,8.73
2022-09-10T19:11:49.609Z,11.20
2022-09-10T19:14:29.866Z,8.70
2022-09-10T19:16:58.637Z,11.50
2022-09-10T19:19:31.730Z,7.43
2022-09-10T19:22:03.317Z,9.13
2022-09-10T19:24:53.362Z,8.03
2022-09-10T19:27:17.658Z,8.87
2022-09-10T19:29:47.157Z,7.90
2022-09-10T19:32:15.140Z,12.97
2022-09-10T19:34:42.691Z,16.00
2022-09-10T19:37:09.770Z,8.93
2022-09-10T19:39:36.739Z,8.67
2022-09-10T19:42:04.178Z,10.93
2022-09-10T19:44:31.047Z,8.07
2022-09-10T19:46:58.674Z,9.33
2022-09-10T19:49:25.590Z,11.30
2022-09-10T19:51:52.506Z,11.87
2022-09-10T19:54:19.422Z,11.73
2022-09-10T19:56:46.309Z,8.70
2022-09-10T19:59:14.465Z,14.93
2022-09-10T20:01:43.617Z,11.60
2022-09-10T20:04:12.624Z,10.17
2022-09-10T20:06:40.298Z,8.60
2022-09-10T20:09:09.791Z,10.83
2022-09-10T20:11:37.186Z,9.27
2022-09-10T20:14:10.729Z,8.50
2022-09-10T20:16:42.260Z,7.33
2022-09-10T20:19:11.565Z,9.00
2022-09-10T20:21:38.526Z,8.23
2022-09-10T20:24:07.285Z,9.43
2022-09-10T20:26:43.893Z,7.97
2022-09-10T20:29:17.834Z,8.07
2022-09-10T20:31:46.213Z,11.30
2022-09-10T20:34:19.723Z,8.43
2022-09-10T20:36:50.252Z,10.23
2022-09-10T20:39:19.774Z,12.90
2022-09-10T20:41:46.997Z,6.83
2022-09-10T20:44:16.508Z,12.37
2022-09-10T20:46:44.498Z,8.50
2022-09-10T20:49:13.810Z,7.20
2022-09-10T20:51:41.364Z,5.83
2022-09-10T20:54:13.907Z,9.00
2022-09-10T20:56:41.424Z,10.13
2022-09-10T20:59:08.295Z,12.80
2022-09-10T21:01:35.223Z,6.57
2022-09-10T21:04:04.103Z,36.73
2022-09-10T21:06:33.258Z,9.50
2022-09-10T21:09:02.063Z,14.50
2022-09-10T21:11:32.418Z,10.67
2022-09-10T21:14:01.904Z,13.67
2022-09-10T21:16:37.981Z,9.70
2022-09-10T21:19:09.396Z,10.17
2022-09-10T21:21:39.330Z,10.93
2022-09-10T21:24:16.640Z,11.47
2022-09-10T21:26:44.396Z,10.23
2022-09-10T21:29:17.768Z,11.30
2022-09-10T21:31:45.563Z,13.40
2022-09-10T21:34:13.679Z,14.03
2022-09-10T21:36:41.882Z,11.80
2022-09-10T21:39:14.368Z,12.53
2022-09-10T21:41:47.609Z,10.87
2022-09-10T21:44:18.394Z,12.97
2022-09-10T21:46:46.677Z,15.83
2022-09-10T21:49:14.321Z,14.47
2022-09-10T21:51:41.912Z,23.93
2022-09-10T21:54:20.435Z,22.90
2022-09-10T21:56:48.688Z,24.17
2022-09-10T21:59:16.121Z,25.07
2022-09-10T22:01:45.410Z,25.60
2022-09-10T22:04:13.727Z,46.70
2022-09-10T22:06:40.858Z,38.77
2022-09-10T22:09:14.859Z,42.40
2022-09-10T22:11:50.157Z,47.53
2022-09-10T22:14:20.883Z,48.23
2022-09-10T22:16:48.251Z,64.17
2022-09-10T22:19:18.895Z,58.30
2022-09-10T22:21:47.080Z,54.63
2022-09-10T22:24:19.226Z,62.10
2022-09-10T22:26:47.341Z,58.53
2022-09-10T22:29:19.997Z,59.13
2022-09-10T22:31:47.918Z,60.53
2022-09-10T22:34:16.536Z,59.13
2022-09-10T22:36:46.137Z,65.63
2022-09-10T22:39:21.288Z,60.20
2022-09-10T22:41:50.078Z,60.37
2022-09-10T22:44:18.044Z,67.50
2022-09-10T22:46:44.967Z,66.00
2022-09-10T22:49:11.900Z,66.87
2022-09-10T22:51:43.336Z,68.90
2022-09-10T22:54:11.299Z,60.57
2022-09-10T22:56:38.372Z,53.60
2022-09-10T22:59:06.571Z,54.53
2022-09-10T23:01:37.558Z,51.17
2022-09-10T23:04:06.327Z,58.30
2022-09-10T23:06:35.479Z,56.70
2022-09-10T23:09:11.088Z,52.47
2022-09-10T23:11:39.196Z,56.70
2022-09-10T23:14:10.785Z,55.93
2022-09-10T23:16:41.901Z,57.27
2022-09-10T23:19:15.653Z,54.53
2022-09-10T23:21:46.483Z,59.40
2022-09-10T23:24:17.166Z,61.50
2022-09-10T23:26:44.782Z,50.97
2022-09-10T23:29:12.523Z,61.03
2022-09-10T23:31:40.935Z,49.87
2022-09-10T23:34:12.995Z,50.30
2022-09-10T23:36:42.822Z,54.43
2022-09-10T23:39:14.823Z,56.70
2022-09-10T23:41:42.202Z,54.80
2022-09-10T23:44:09.855Z,47.07
2022-09-10T23:46:37.567Z,54.03
2022-09-10T23:49:05.523Z,46.17
2022-09-10T23:51:32.383Z,44.77
2022-09-10T23:53:59.569Z,47.07
2022-09-10T23:56:28.331Z,50.23
2022-09-10T23:58:56.416Z,52.70
